Time;durP1;ratioP1;P1;durP2;ratioP2;P2;SDS_P1;SDS_P2;PMS_P1;PMS_P2;Temp;Humidity;BMP_temperature;BMP_pressure;BME280_temperature;BME280_humidity;BME280_pressure;Samples;Min_cycle;Max_cycle;Signal;HPM_P1;HPM_P2
2021/01/16 00:00:52;;;;;;;2.22;2.03;;;4.50;99.90;;;;;;5054101;28;20564;-74
2021/01/16 00:03:17;;;;;;;2.35;2.15;;;4.70;99.90;;;;;;5053691;28;20179;-74
2021/01/16 00:05:45;;;;;;;3.08;2.22;;;4.60;99.90;;;;;;5053758;28;20194;-75
2021/01/16 00:08:15;;;;;;;2.42;2.33;;;4.60;99.90;;;;;;5053686;28;20159;-75
2021/01/16 00:10:44;;;;;;;3.05;2.83;;;4.40;99.90;;;;;;5053580;28;20167;-74
2021/01/16 00:13:11;;;;;;;3.00;2.15;;;4.40;99.90;;;;;;5053608;28;20171;-77
2021/01/16 00:15:37;;;;;;;2.22;2.03;;;4.50;99.90;;;;;;5053360;28;20214;-77
2021/01/16 00:18:05;;;;;;;2.03;1.92;;;4.50;99.90;;;;;;5053537;28;20228;-75
2021/01/16 00:20:33;;;;;;;3.45;2.58;;;4.40;99.90;;;;;;5035580;28;20305;-76
2021/01/16 00:22:58;;;;;;;4.75;1.70;;;4.30;99.90;;;;;;5065456;28;20237;-76
2021/01/16 00:25:25;;;;;;;5.43;1.48;;;4.50;99.90;;;;;;5073380;28;20190;-77
2021/01/16 00:27:51;;;;;;;1.50;1.45;;;4.60;99.90;;;;;;5055449;28;20626;-77
2021/01/16 00:30:18;;;;;;;2.83;2.63;;;4.60;99.90;;;;;;5073614;28;20178;-77
2021/01/16 00:32:44;;;;;;;3.65;2.88;;;4.70;99.90;;;;;;5073480;28;20162;-77
2021/01/16 00:35:12;;;;;;;4.00;1.73;;;4.70;99.90;;;;;;5073342;28;20194;-77
2021/01/16 00:37:38;;;;;;;6.60;1.88;;;4.80;99.90;;;;;;5073694;28;20249;-77
2021/01/16 00:40:07;;;;;;;1.05;1.05;;;4.80;99.90;;;;;;5072016;28;20167;-77
2021/01/16 00:42:32;;;;;;;2.58;2.45;;;4.70;99.90;;;;;;5073542;28;20174;-77
2021/01/16 00:44:58;;;;;;;2.03;1.92;;;4.50;99.90;;;;;;5073350;28;20190;-77
2021/01/16 00:47:24;;;;;;;2.72;1.75;;;4.40;99.90;;;;;;5073667;28;20167;-77
2021/01/16 00:49:50;;;;;;;2.30;1.65;;;4.30;99.90;;;;;;5073502;28;20171;-77
2021/01/16 00:52:16;;;;;;;5.07;1.92;;;4.70;99.90;;;;;;5073129;28;20178;-77
2021/01/16 00:54:41;;;;;;;0.93;0.93;;;4.90;99.90;;;;;;5073185;28;20197;-78
2021/01/16 00:57:07;;;;;;;1.48;1.48;;;5.00;99.90;;;;;;5073009;28;20283;-77
2021/01/16 00:59:33;;;;;;;1.90;1.80;;;4.80;99.90;;;;;;5072755;28;20691;-77
2021/01/16 01:01:58;;;;;;;3.10;2.28;;;4.80;99.90;;;;;;5073573;28;20174;-78
2021/01/16 01:04:24;;;;;;;1.75;1.65;;;4.90;99.90;;;;;;5055430;28;20241;-78
2021/01/16 01:06:49;;;;;;;1.65;1.55;;;5.00;99.90;;;;;;5073543;28;20614;-77
2021/01/16 01:09:15;;;;;;;1.00;1.00;;;5.00;99.90;;;;;;5073311;28;20166;-78
2021/01/16 01:11:40;;;;;;;2.03;1.92;;;4.90;99.90;;;;;;5073033;28;20166;-77
2021/01/16 01:14:06;;;;;;;6.28;2.78;;;4.90;99.90;;;;;;5073281;28;20166;-77
2021/01/16 01:16:31;;;;;;;2.28;1.92;;;4.60;99.90;;;;;;5072811;28;20592;-77
2021/01/16 01:18:57;;;;;;;2.45;2.25;;;4.40;99.90;;;;;;5073364;28;20569;-77
2021/01/16 01:21:23;;;;;;;1.00;0.93;;;4.40;99.90;;;;;;5073234;28;20154;-77
2021/01/16 01:23:48;;;;;;;2.38;1.77;;;4.50;99.90;;;;;;5072849;28;20222;-77
2021/01/16 01:26:14;;;;;;;1.00;0.70;;;4.90;99.90;;;;;;5071852;28;20187;-77
2021/01/16 01:28:40;;;;;;;1.80;1.70;;;4.80;99.90;;;;;;5073129;28;20185;-78
2021/01/16 01:31:05;;;;;;;6.80;2.95;;;4.60;99.90;;;;;;5073016;28;20241;-77
2021/01/16 01:33:31;;;;;;;2.08;1.00;;;4.50;99.90;;;;;;5072912;28;20167;-78
2021/01/16 01:35:56;;;;;;;1.50;1.38;;;4.50;99.90;;;;;;5072748;28;20272;-77
2021/01/16 01:38:22;;;;;;;0.77;0.77;;;4.30;99.90;;;;;;5072838;28;20155;-78
2021/01/16 01:40:48;;;;;;;1.15;1.15;;;4.20;99.90;;;;;;5072840;28;20505;-76
2021/01/16 01:43:14;;;;;;;3.28;1.92;;;4.20;99.90;;;;;;5072793;28;20216;-77
2021/01/16 01:45:40;;;;;;;6.82;3.20;;;4.20;99.90;;;;;;5072674;28;20182;-77
2021/01/16 01:48:06;;;;;;;1.35;1.35;;;4.40;99.90;;;;;;5072728;28;20234;-77
2021/01/16 01:50:31;;;;;;;0.40;0.40;;;4.50;99.90;;;;;;5072770;28;20703;-77
2021/01/16 01:53:01;;;;;;;3.28;3.08;;;4.60;99.90;;;;;;5054852;28;20171;-78
2021/01/16 01:55:28;;;;;;;4.53;2.25;;;4.80;99.90;;;;;;5072686;28;20290;-77
2021/01/16 01:57:54;;;;;;;7.50;3.92;;;5.10;99.90;;;;;;5072565;28;20151;-76
2021/01/16 02:00:21;;;;;;;1.23;1.15;;;4.80;99.90;;;;;;5072493;28;20171;-77
2021/01/16 02:02:47;;;;;;;2.08;1.85;;;4.70;99.90;;;;;;5072926;28;20173;-77
2021/01/16 02:05:14;;;;;;;2.38;2.28;;;4.90;99.90;;;;;;5072564;28;20182;-77
2021/01/16 02:07:40;;;;;;;1.95;1.85;;;4.70;99.90;;;;;;5072657;28;20151;-77
2021/01/16 02:10:24;;;;;;;3.40;2.13;;;4.40;99.90;;;;;;5072513;28;20185;-77
2021/01/16 02:12:53;;;;;;;3.13;1.55;;;4.40;99.90;;;;;;5076188;28;20649;-75
2021/01/16 02:15:31;;;;;;;1.83;1.52;;;4.70;99.90;;;;;;5075982;28;20546;-77
2021/01/16 02:18:22;;;;;;;2.28;1.98;;;4.70;99.90;;;;;;5076348;28;20220;-77
2021/01/16 02:20:48;;;;;;;2.33;2.22;;;4.40;99.90;;;;;;5065150;28;20257;-76
2021/01/16 02:23:13;;;;;;;3.95;3.58;;;4.50;99.90;;;;;;5075775;28;20308;-76
2021/01/16 02:25:41;;;;;;;1.80;1.70;;;4.60;99.90;;;;;;5075676;28;20287;-76
2021/01/16 02:28:18;;;;;;;2.13;2.03;;;4.80;99.90;;;;;;5075848;28;20155;-74
2021/01/16 02:30:45;;;;;;;0.90;0.90;;;4.80;99.90;;;;;;5075712;28;20158;-76
2021/01/16 02:33:15;;;;;;;1.38;1.35;;;4.50;99.90;;;;;;5074432;28;20178;-75
2021/01/16 02:36:07;;;;;;;2.13;1.92;;;4.20;99.90;;;;;;5075456;28;20592;-76
2021/01/16 02:38:39;;;;;;;3.83;3.53;;;4.40;99.90;;;;;;5075845;28;20492;-76
2021/01/16 02:41:20;;;;;;;4.43;3.03;;;4.50;99.90;;;;;;5075579;28;20166;-76
2021/01/16 02:43:59;;;;;;;9.38;2.42;;;4.40;99.90;;;;;;5075600;28;20170;-76
2021/01/16 02:46:35;;;;;;;1.75;1.73;;;4.50;99.90;;;;;;5075322;28;20556;-76
2021/01/16 02:49:28;;;;;;;1.95;1.83;;;4.50;99.90;;;;;;5074159;28;20648;-75
2021/01/16 02:52:05;;;;;;;1.35;1.35;;;4.30;99.90;;;;;;5075444;28;20300;-75
2021/01/16 02:54:38;;;;;;;1.33;0.82;;;4.20;99.90;;;;;;5075296;28;20189;-76
2021/01/16 02:57:06;;;;;;;8.55;2.97;;;4.20;99.90;;;;;;5073887;28;20202;-76
2021/01/16 02:59:42;;;;;;;1.85;1.73;;;4.50;99.90;;;;;;5075333;28;20174;-75
2021/01/16 03:02:10;;;;;;;1.50;1.15;;;4.60;99.90;;;;;;5075216;28;20163;-76
2021/01/16 03:04:37;;;;;;;1.45;0.98;;;4.60;99.90;;;;;;5075153;28;20163;-76
2021/01/16 03:07:04;;;;;;;4.70;3.55;;;4.70;99.90;;;;;;5075104;28;20165;-76
2021/01/16 03:09:31;;;;;;;5.97;2.15;;;4.60;99.90;;;;;;5075066;28;20231;-76
2021/01/16 03:11:57;;;;;;;2.92;1.52;;;4.60;99.90;;;;;;5075158;28;20166;-76
2021/01/16 03:14:27;;;;;;;2.70;2.42;;;4.60;99.90;;;;;;5075087;28;20668;-76
2021/01/16 03:17:11;;;;;;;2.70;1.55;;;4.50;99.90;;;;;;5074923;28;20230;-76
2021/01/16 03:19:41;;;;;;;1.65;1.55;;;4.70;99.90;;;;;;5075046;28;20192;-77
2021/01/16 03:22:19;;;;;;;5.25;2.33;;;4.40;99.90;;;;;;5074157;28;20217;-77
2021/01/16 03:24:45;;;;;;;1.08;1.08;;;4.50;99.90;;;;;;5074586;28;20205;-76
2021/01/16 03:27:11;;;;;;;2.63;2.13;;;4.50;99.90;;;;;;5074828;28;20251;-76
2021/01/16 03:29:37;;;;;;;4.03;2.88;;;4.50;99.90;;;;;;5074931;28;20198;-76
2021/01/16 03:32:04;;;;;;;1.90;1.80;;;4.50;99.90;;;;;;5074769;28;20167;-76
2021/01/16 03:34:29;;;;;;;0.70;0.70;;;4.50;99.90;;;;;;5074864;28;20224;-77
2021/01/16 03:36:55;;;;;;;1.10;1.10;;;4.70;99.90;;;;;;5074581;28;20657;-77
2021/01/16 03:39:20;;;;;;;5.60;2.20;;;5.00;99.90;;;;;;5056727;28;20200;-76
2021/01/16 03:41:46;;;;;;;2.25;1.20;;;5.10;99.90;;;;;;5074497;28;20181;-76
2021/01/16 03:44:12;;;;;;;6.25;2.22;;;4.90;99.90;;;;;;5074542;28;20638;-76
2021/01/16 03:46:37;;;;;;;4.53;1.63;;;4.80;99.90;;;;;;5074498;28;20190;-75
2021/01/16 03:49:03;;;;;;;2.20;1.98;;;4.70;99.90;;;;;;5074234;28;20245;-76
2021/01/16 03:51:29;;;;;;;2.00;1.90;;;4.50;99.90;;;;;;5074439;28;20158;-77
2021/01/16 03:53:55;;;;;;;2.38;2.28;;;4.50;99.90;;;;;;5074377;28;20166;-76
2021/01/16 03:56:20;;;;;;;3.10;2.90;;;4.70;99.90;;;;;;5074195;28;20210;-76
2021/01/16 03:58:46;;;;;;;0.80;0.80;;;4.60;99.90;;;;;;5074159;28;20170;-76
2021/01/16 04:01:11;;;;;;;2.17;1.52;;;4.70;99.90;;;;;;5074282;28;20159;-76
2021/01/16 04:03:37;;;;;;;2.35;1.77;;;4.70;99.90;;;;;;5074221;28;20514;-76
2021/01/16 04:06:02;;;;;;;2.10;2.00;;;4.60;99.90;;;;;;5074205;28;20273;-76
2021/01/16 04:08:28;;;;;;;2.40;1.45;;;4.60;99.90;;;;;;5073922;28;20158;-75
2021/01/16 04:10:53;;;;;;;2.55;2.35;;;4.60;99.90;;;;;;5072662;28;20175;-77
2021/01/16 04:13:19;;;;;;;7.07;2.55;;;4.60;99.90;;;;;;5073850;28;20163;-76
2021/01/16 04:15:45;;;;;;;1.27;1.27;;;4.70;99.90;;;;;;5073747;28;20216;-76
2021/01/16 04:18:13;;;;;;;1.70;1.60;;;4.70;99.90;;;;;;5073925;28;20242;-77
2021/01/16 04:20:39;;;;;;;2.20;2.10;;;4.70;99.90;;;;;;5073935;28;20198;-77
2021/01/16 04:23:04;;;;;;;3.83;2.53;;;4.60;99.90;;;;;;5073614;28;20221;-77
2021/01/16 04:25:30;;;;;;;1.80;1.23;;;4.60;99.90;;;;;;5073949;28;20206;-77
2021/01/16 04:27:55;;;;;;;3.97;1.45;;;4.50;99.90;;;;;;5073863;28;20163;-77
2021/01/16 04:30:22;;;;;;;3.40;2.80;;;4.70;99.90;;;;;;5073680;28;20276;-78
2021/01/16 04:32:51;;;;;;;1.55;1.45;;;4.60;99.90;;;;;;5073529;28;20178;-77
2021/01/16 04:35:16;;;;;;;7.80;3.33;;;4.60;99.90;;;;;;5073047;28;20660;-78
2021/01/16 04:37:43;;;;;;;3.00;2.60;;;4.20;99.90;;;;;;5073684;28;20198;-78
2021/01/16 04:40:09;;;;;;;2.33;1.40;;;4.40;99.90;;;;;;5073419;28;20197;-78
2021/01/16 04:42:41;;;;;;;13.68;2.97;;;4.20;99.90;;;;;;5073387;28;20170;-77
2021/01/16 04:45:08;;;;;;;0.77;0.60;;;4.30;99.90;;;;;;5073097;28;20182;-77
2021/01/16 04:47:34;;;;;;;5.05;2.78;;;4.50;99.90;;;;;;5073345;28;20159;-78
2021/01/16 04:50:01;;;;;;;2.15;1.50;;;4.50;99.90;;;;;;5073256;28;20300;-76
2021/01/16 04:52:28;;;;;;;2.70;1.40;;;4.50;99.90;;;;;;5073121;28;20174;-76
2021/01/16 04:54:55;;;;;;;1.65;1.15;;;4.50;99.90;;;;;;5073293;28;20191;-76
2021/01/16 04:57:27;;;;;;;2.17;2.08;;;4.60;99.90;;;;;;5073098;28;20197;-76
2021/01/16 04:59:53;;;;;;;3.03;2.83;;;4.70;99.90;;;;;;5073219;28;20249;-75
2021/01/16 05:02:22;;;;;;;1.83;1.58;;;4.70;99.90;;;;;;5073009;28;20721;-76
2021/01/16 05:04:50;;;;;;;0.50;0.50;;;4.80;99.90;;;;;;5073223;28;20180;-76
2021/01/16 05:07:18;;;;;;;4.47;2.17;;;4.80;99.90;;;;;;5073312;28;20184;-78
2021/01/16 05:09:45;;;;;;;2.92;1.92;;;4.90;99.90;;;;;;5073245;28;20170;-78
2021/01/16 05:12:34;;;;;;;1.95;1.85;;;4.70;99.90;;;;;;5072807;28;20158;-78
2021/01/16 05:15:08;;;;;;;1.98;1.88;;;4.30;99.90;;;;;;5071735;28;20191;-78
2021/01/16 05:17:39;;;;;;;2.70;2.47;;;4.20;99.90;;;;;;5073241;28;20192;-77
2021/01/16 05:20:07;;;;;;;1.08;1.08;;;4.10;99.90;;;;;;5072970;28;20205;-78
2021/01/16 05:22:32;;;;;;;1.73;1.30;;;4.20;99.90;;;;;;5072863;28;20267;-77
2021/01/16 05:25:02;;;;;;;1.42;1.33;;;4.20;99.90;;;;;;5073809;28;20182;-77
2021/01/16 05:27:34;;;;;;;1.90;1.80;;;4.30;99.90;;;;;;5071777;28;20212;-78
2021/01/16 05:30:09;;;;;;;1.52;1.42;;;4.40;99.90;;;;;;5072965;28;20501;-78
2021/01/16 05:32:36;;;;;;;2.75;2.25;;;3.90;99.90;;;;;;5072800;28;20622;-76
2021/01/16 05:35:21;;;;;;;2.38;2.17;;;4.00;99.90;;;;;;5072745;28;20265;-77
2021/01/16 05:37:48;;;;;;;0.80;0.80;;;4.10;99.90;;;;;;5072634;28;20200;-76
2021/01/16 05:40:17;;;;;;;3.97;2.10;;;4.10;99.90;;;;;;5072634;28;20177;-77
2021/01/16 05:42:43;;;;;;;1.60;1.55;;;3.90;99.90;;;;;;5072788;28;20170;-75
2021/01/16 05:45:11;;;;;;;2.38;2.20;;;4.10;99.90;;;;;;5073911;28;20610;-76
2021/01/16 05:47:41;;;;;;;3.60;2.05;;;4.50;99.90;;;;;;5076629;28;20159;-78
2021/01/16 05:50:10;;;;;;;1.23;1.23;;;4.40;99.90;;;;;;5076475;28;20170;-77
2021/01/16 05:52:40;;;;;;;1.20;1.17;;;4.20;99.90;;;;;;5076474;28;20190;-78
2021/01/16 05:55:07;;;;;;;3.42;3.03;;;4.10;99.90;;;;;;5076372;28;20189;-77
2021/01/16 05:57:34;;;;;;;2.38;1.67;;;4.00;99.90;;;;;;5076318;28;20174;-78
2021/01/16 06:00:01;;;;;;;0.80;0.80;;;4.00;99.90;;;;;;5076386;28;20166;-77
2021/01/16 06:02:31;;;;;;;2.47;2.33;;;4.00;99.90;;;;;;5076236;28;20503;-76
2021/01/16 06:04:57;;;;;;;1.90;1.80;;;4.10;99.90;;;;;;5076268;28;20190;-77
2021/01/16 06:07:24;;;;;;;1.70;1.60;;;4.20;99.90;;;;;;5074786;28;20169;-74
2021/01/16 06:09:55;;;;;;;1.58;1.48;;;4.00;99.90;;;;;;5076030;28;20188;-74
2021/01/16 06:12:22;;;;;;;1.70;1.60;;;3.80;99.90;;;;;;5076185;28;20313;-78
2021/01/16 06:14:49;;;;;;;11.50;3.65;;;3.90;99.90;;;;;;5074931;28;20187;-78
2021/01/16 06:17:17;;;;;;;3.65;3.35;;;3.80;99.90;;;;;;5076231;28;20209;-78
2021/01/16 06:19:46;;;;;;;0.70;0.70;;;4.00;99.90;;;;;;5075959;28;20162;-78
2021/01/16 06:22:13;;;;;;;3.05;1.58;;;3.70;99.90;;;;;;5058058;28;20320;-77
2021/01/16 06:24:48;;;;;;;1.90;1.80;;;3.80;99.90;;;;;;5075849;28;20270;-78
2021/01/16 06:27:25;;;;;;;1.20;1.13;;;3.90;99.90;;;;;;5075815;28;20181;-74
2021/01/16 06:29:59;;;;;;;6.43;2.33;;;3.90;99.90;;;;;;5075825;28;20170;-77
2021/01/16 06:32:27;;;;;;;2.97;2.40;;;4.00;99.90;;;;;;5075987;28;20164;-75
2021/01/16 06:35:06;;;;;;;3.08;1.85;;;3.90;99.90;;;;;;5075605;28;20191;-75
2021/01/16 06:37:32;;;;;;;4.85;2.88;;;4.10;99.90;;;;;;5075462;28;20233;-74
2021/01/16 06:39:57;;;;;;;2.47;2.38;;;4.10;99.90;;;;;;5075320;28;20190;-74
2021/01/16 06:42:27;;;;;;;3.05;2.35;;;3.90;99.90;;;;;;5075358;28;20703;-74
2021/01/16 06:45:09;;;;;;;2.17;2.08;;;4.00;99.90;;;;;;5075079;28;20186;-74
2021/01/16 06:47:37;;;;;;;1.58;1.48;;;3.90;99.90;;;;;;5075523;28;20541;-74
2021/01/16 06:50:07;;;;;;;0.70;0.70;;;3.80;99.90;;;;;;5075179;28;20245;-74
2021/01/16 06:52:34;;;;;;;3.67;1.75;;;3.80;99.90;;;;;;5075101;28;20662;-74
2021/01/16 06:55:03;;;;;;;1.40;1.15;;;3.60;99.90;;;;;;5075102;28;20189;-74
2021/01/16 06:57:29;;;;;;;2.88;1.52;;;3.60;99.90;;;;;;5073197;28;20717;-75
2021/01/16 06:59:58;;;;;;;4.03;1.45;;;3.70;99.90;;;;;;5075402;28;20244;-78
2021/01/16 07:02:32;;;;;;;1.20;1.20;;;3.70;99.90;;;;;;5075238;28;20170;-78
2021/01/16 07:04:59;;;;;;;2.75;2.55;;;3.80;99.90;;;;;;5074928;28;20220;-74
2021/01/16 07:07:31;;;;;;;1.75;1.67;;;3.70;99.90;;;;;;5074879;28;20155;-74
2021/01/16 07:10:04;;;;;;;2.25;2.15;;;3.90;99.90;;;;;;5074962;28;20167;-76
2021/01/16 07:12:30;;;;;;;3.25;1.52;;;4.00;99.90;;;;;;5074895;28;20258;-75
2021/01/16 07:14:55;;;;;;;1.02;1.00;;;4.00;99.90;;;;;;5074788;28;20222;-74
2021/01/16 07:17:25;;;;;;;12.02;1.58;;;4.00;99.90;;;;;;5074758;28;20236;-74
2021/01/16 07:19:53;;;;;;;1.73;1.63;;;4.00;99.90;;;;;;5074711;28;20633;-75
2021/01/16 07:22:25;;;;;;;2.47;1.75;;;4.00;99.90;;;;;;5074317;28;20263;-74
2021/01/16 07:24:51;;;;;;;1.02;1.02;;;4.10;99.90;;;;;;5074581;28;20186;-76
2021/01/16 07:27:18;;;;;;;2.05;1.70;;;4.00;99.90;;;;;;5074814;28;20192;-76
2021/01/16 07:29:45;;;;;;;1.52;1.42;;;4.20;99.90;;;;;;5074767;28;20227;-79
2021/01/16 07:32:16;;;;;;;1.25;1.25;;;4.00;99.90;;;;;;5074702;28;20570;-78
2021/01/16 07:34:46;;;;;;;11.98;2.90;;;3.90;99.90;;;;;;5074493;28;20218;-78
2021/01/16 07:37:13;;;;;;;0.70;0.70;;;3.80;99.90;;;;;;5074391;28;20669;-74
2021/01/16 07:39:40;;;;;;;0.70;0.70;;;3.90;99.90;;;;;;5073010;28;20686;-75
2021/01/16 07:42:12;;;;;;;3.03;1.55;;;4.00;99.90;;;;;;5074192;28;20170;-74
2021/01/16 07:44:46;;;;;;;0.45;0.45;;;4.10;99.90;;;;;;5074291;28;20209;-76
2021/01/16 07:47:20;;;;;;;1.42;1.40;;;4.20;99.90;;;;;;5056162;28;20264;-74
2021/01/16 07:49:57;;;;;;;4.25;1.13;;;4.20;99.90;;;;;;5074740;28;20172;-78
2021/01/16 07:52:28;;;;;;;0.30;0.30;;;4.10;99.90;;;;;;5074358;28;20177;-76
2021/01/16 07:55:04;;;;;;;1.33;1.27;;;4.10;99.90;;;;;;5073786;28;20550;-76
2021/01/16 07:57:31;;;;;;;0.32;0.32;;;4.20;99.90;;;;;;5074269;28;20198;-77
2021/01/16 08:00:11;;;;;;;0.68;0.68;;;4.20;99.90;;;;;;5072651;28;20284;-74
2021/01/16 08:03:16;;;;;;;0.55;0.55;;;4.20;99.90;;;;;;5073923;28;20162;-76
2021/01/16 08:06:10;;;;;;;1.42;1.38;;;4.20;99.90;;;;;;5073954;28;20183;-77
2021/01/16 08:08:57;;;;;;;0.47;0.47;;;4.40;99.90;;;;;;5042514;28;20231;-77
2021/01/16 08:11:29;;;;;;;0.63;0.63;;;4.30;99.90;;;;;;5073777;28;20154;-77
2021/01/16 08:13:59;;;;;;;4.13;2.08;;;4.40;99.90;;;;;;5055407;28;20501;-78
2021/01/16 08:16:26;;;;;;;10.05;2.85;;;4.30;99.90;;;;;;5071805;28;20620;-77
2021/01/16 08:19:03;;;;;;;0.45;0.32;;;4.30;99.90;;;;;;5073898;28;20170;-77
2021/01/16 08:21:29;;;;;;;0.80;0.80;;;4.40;99.90;;;;;;5072135;28;20181;-78
2021/01/16 08:24:03;;;;;;;1.90;1.23;;;4.40;99.90;;;;;;5073581;28;20285;-78
2021/01/16 08:26:28;;;;;;;2.30;1.80;;;4.30;99.90;;;;;;5073596;28;20525;-81
2021/01/16 08:28:57;;;;;;;1.95;0.95;;;4.50;99.90;;;;;;5073308;28;20178;-78
2021/01/16 08:31:29;;;;;;;2.08;0.95;;;4.70;99.90;;;;;;5073435;28;20194;-76
2021/01/16 08:33:57;;;;;;;0.40;0.40;;;4.50;99.90;;;;;;5073391;28;20657;-80
2021/01/16 08:36:23;;;;;;;1.00;1.00;;;4.40;99.90;;;;;;5073201;28;20284;-77
2021/01/16 08:38:50;;;;;;;1.20;0.88;;;4.40;99.90;;;;;;5073235;28;20614;-75
2021/01/16 08:41:25;;;;;;;0.30;0.30;;;4.50;99.90;;;;;;5073473;28;20277;-76
2021/01/16 08:43:57;;;;;;;0.50;0.50;;;4.70;99.90;;;;;;5072975;28;20652;-76
2021/01/16 08:46:35;;;;;;;0.88;0.80;;;4.70;99.90;;;;;;5073312;28;20285;-76
2021/01/16 08:49:10;;;;;;;1.02;1.02;;;4.70;99.90;;;;;;5073018;28;20637;-74
2021/01/16 08:51:52;;;;;;;2.95;2.05;;;4.70;99.90;;;;;;5073512;28;20158;-77
2021/01/16 08:54:18;;;;;;;0.70;0.70;;;4.60;99.90;;;;;;5072871;28;20246;-78
2021/01/16 08:56:52;;;;;;;0.70;0.70;;;4.70;99.90;;;;;;5072968;28;20198;-78
2021/01/16 08:59:34;;;;;;;0.63;0.63;;;4.60;99.90;;;;;;5073215;28;20159;-77
2021/01/16 09:02:10;;;;;;;3.13;1.45;;;4.50;99.90;;;;;;5073175;28;20166;-78
2021/01/16 09:04:40;;;;;;;0.88;0.88;;;4.50;99.90;;;;;;5073388;28;20502;-78
2021/01/16 09:07:40;;;;;;;0.40;0.40;;;4.50;99.90;;;;;;5072103;28;20586;-77
2021/01/16 09:10:06;;;;;;;0.55;0.55;;;4.50;99.90;;;;;;5072670;28;20166;-78
2021/01/16 09:12:39;;;;;;;0.30;0.30;;;4.50;99.90;;;;;;5072628;28;20163;-77
2021/01/16 09:15:24;;;;;;;1.95;0.98;;;4.30;99.90;;;;;;5072512;28;20190;-74
2021/01/16 09:18:11;;;;;;;1.20;1.20;;;4.40;99.90;;;;;;5071393;28;20174;-77
2021/01/16 09:20:37;;;;;;;0.80;0.80;;;4.30;99.90;;;;;;5074728;28;20155;-79
2021/01/16 09:23:18;;;;;;;0.70;0.70;;;4.20;99.90;;;;;;5076827;28;20592;-79
2021/01/16 09:25:48;;;;;;;0.50;0.50;;;4.30;99.90;;;;;;5076571;28;20251;-79
2021/01/16 09:28:13;;;;;;;0.93;0.93;;;4.30;99.90;;;;;;5076621;28;20634;-78
2021/01/16 09:30:39;;;;;;;1.20;1.20;;;4.60;99.90;;;;;;5077101;28;20166;-76
2021/01/16 09:33:22;;;;;;;0.40;0.40;;;4.50;99.90;;;;;;5076652;28;20191;-78
2021/01/16 09:35:48;;;;;;;0.40;0.40;;;4.40;99.90;;;;;;5076256;28;20202;-74
2021/01/16 09:38:22;;;;;;;1.60;1.42;;;4.30;99.90;;;;;;5076520;28;20163;-77
2021/01/16 09:40:50;;;;;;;0.40;0.40;;;4.00;99.90;;;;;;5076303;28;20155;-77
2021/01/16 09:43:20;;;;;;;1.50;1.17;;;4.20;99.90;;;;;;5076243;28;20239;-78
2021/01/16 09:46:00;;;;;;;0.40;0.40;;;4.20;99.90;;;;;;5074830;28;20522;-77
2021/01/16 09:48:46;;;;;;;4.40;0.88;;;4.20;99.90;;;;;;5076111;28;20159;-77
2021/01/16 09:51:13;;;;;;;0.85;0.85;;;4.10;99.90;;;;;;5075783;28;20178;-72
2021/01/16 09:53:41;;;;;;;1.95;1.85;;;4.00;99.90;;;;;;5076020;28;20163;-77
2021/01/16 09:56:07;;;;;;;0.57;0.57;;;4.00;99.90;;;;;;5076052;28;20472;-77
2021/01/16 09:58:38;;;;;;;0.40;0.40;;;4.10;99.90;;;;;;5076100;28;20263;-77
2021/01/16 10:01:13;;;;;;;0.82;0.82;;;3.80;99.90;;;;;;5075851;28;20151;-76
2021/01/16 10:03:40;;;;;;;0.68;0.68;;;3.90;99.90;;;;;;5075821;28;20701;-77
2021/01/16 10:06:06;;;;;;;1.13;1.13;;;3.90;99.90;;;;;;5075773;28;20191;-77
2021/01/16 10:08:33;;;;;;;1.63;0.80;;;3.90;99.90;;;;;;5076140;28;20178;-77
2021/01/16 10:11:01;;;;;;;0.70;0.70;;;3.70;99.90;;;;;;5075731;28;20681;-77
2021/01/16 10:13:35;;;;;;;1.00;1.00;;;3.80;99.90;;;;;;5074676;28;20170;-78
2021/01/16 10:16:03;;;;;;;0.35;0.35;;;3.60;99.90;;;;;;5075496;28;20247;-76
2021/01/16 10:18:30;;;;;;;2.50;1.08;;;3.70;99.90;;;;;;5075857;28;20162;-78
2021/01/16 10:21:08;;;;;;;2.28;2.17;;;3.90;99.90;;;;;;5076102;28;20159;-78
2021/01/16 10:23:41;;;;;;;2.25;1.92;;;3.80;99.90;;;;;;5075507;28;20271;-77
2021/01/16 10:26:11;;;;;;;0.35;0.35;;;3.80;99.90;;;;;;5075486;28;20213;-77
2021/01/16 10:28:39;;;;;;;3.95;2.13;;;4.00;99.90;;;;;;5075366;28;20614;-77
2021/01/16 10:31:07;;;;;;;4.63;1.40;;;4.00;99.90;;;;;;5074923;28;20158;-76
2021/01/16 10:33:42;;;;;;;5.60;1.35;;;4.10;99.90;;;;;;5075076;28;20166;-76
2021/01/16 10:36:13;;;;;;;1.20;1.15;;;4.20;99.90;;;;;;5075355;28;20214;-76
2021/01/16 10:38:48;;;;;;;1.00;0.88;;;4.00;99.90;;;;;;5075227;28;20556;-77
2021/01/16 10:41:16;;;;;;;2.10;0.82;;;3.70;99.90;;;;;;5075310;28;20622;-76
2021/01/16 10:43:43;;;;;;;1.10;1.05;;;3.60;99.90;;;;;;5075348;28;20628;-77
2021/01/16 10:46:30;;;;;;;0.80;0.80;;;3.80;99.90;;;;;;5075351;28;20734;-76
2021/01/16 10:49:18;;;;;;;0.98;0.98;;;3.90;99.90;;;;;;5075127;28;20167;-78
2021/01/16 10:51:57;;;;;;;2.72;1.25;;;3.90;99.90;;;;;;5074994;28;20234;-78
2021/01/16 10:54:24;;;;;;;0.45;0.45;;;4.20;99.90;;;;;;5074796;28;20621;-76
2021/01/16 10:56:59;;;;;;;1.25;1.10;;;4.20;99.90;;;;;;5074951;28;20206;-77
2021/01/16 10:59:27;;;;;;;0.30;0.30;;;4.10;99.90;;;;;;5074628;28;20169;-76
2021/01/16 11:01:53;;;;;;;0.57;0.57;;;4.00;99.90;;;;;;5075317;28;20159;-88
2021/01/16 11:04:24;;;;;;;3.70;1.05;;;4.00;99.90;;;;;;5074636;28;20174;-76
2021/01/16 11:06:58;;;;;;;0.73;0.73;;;3.70;99.90;;;;;;5074846;28;20241;-77
2021/01/16 11:09:33;;;;;;;1.35;1.30;;;3.70;99.90;;;;;;5074672;28;20178;-81
2021/01/16 11:12:03;;;;;;;2.35;1.85;;;3.70;99.90;;;;;;5074633;28;20161;-77
2021/01/16 11:14:37;;;;;;;1.00;0.98;;;3.90;99.90;;;;;;5074504;28;20212;-77
2021/01/16 11:17:04;;;;;;;0.38;0.38;;;3.90;99.90;;;;;;5074392;28;20237;-77
2021/01/16 11:20:00;;;;;;;0.95;0.95;;;3.80;99.90;;;;;;5074364;28;20217;-77
2021/01/16 11:22:42;;;;;;;5.30;2.00;;;3.80;99.90;;;;;;5070803;28;20218;-77
2021/01/16 11:25:12;;;;;;;0.50;0.50;;;3.80;99.90;;;;;;5073057;28;20186;-77
2021/01/16 11:28:10;;;;;;;0.30;0.30;;;3.60;99.90;;;;;;5073133;28;20177;-77
2021/01/16 11:30:44;;;;;;;0.43;0.43;;;3.50;99.90;;;;;;5074158;28;20580;-77
2021/01/16 11:33:31;;;;;;;0.75;0.75;;;3.60;99.90;;;;;;5074081;28;20160;-77
2021/01/16 11:36:03;;;;;;;1.95;0.75;;;3.60;99.90;;;;;;5073256;28;20332;-77
2021/01/16 11:38:38;;;;;;;1.38;1.35;;;3.60;99.90;;;;;;5074307;28;20498;-77
2021/01/16 11:41:04;;;;;;;2.40;2.22;;;3.70;99.90;;;;;;5072692;28;20169;-77
2021/01/16 11:43:30;;;;;;;1.25;1.23;;;4.00;99.90;;;;;;5073931;28;20180;-77
2021/01/16 11:46:03;;;;;;;0.57;0.57;;;3.80;99.90;;;;;;5073924;28;20595;-78
2021/01/16 11:48:32;;;;;;;1.02;1.02;;;3.60;99.90;;;;;;5074052;28;20154;-77
2021/01/16 11:50:59;;;;;;;3.90;3.53;;;3.60;99.90;;;;;;5072478;28;20167;-77
2021/01/16 11:53:25;;;;;;;0.63;0.63;;;3.80;99.90;;;;;;5073746;28;20265;-78
2021/01/16 11:55:50;;;;;;;0.73;0.73;;;3.80;99.90;;;;;;5073484;28;20194;-78
2021/01/16 11:58:16;;;;;;;1.42;1.33;;;3.90;99.90;;;;;;5072705;28;20545;-76
2021/01/16 12:00:43;;;;;;;0.60;0.60;;;3.60;99.90;;;;;;5072526;28;20162;-77
2021/01/16 12:03:10;;;;;;;1.65;1.55;;;3.80;99.90;;;;;;5073486;28;20166;-78
2021/01/16 12:05:35;;;;;;;5.50;1.60;;;3.90;99.90;;;;;;5073420;28;20178;-75
2021/01/16 12:08:02;;;;;;;1.10;1.10;;;4.00;99.90;;;;;;5073881;28;20162;-78
2021/01/16 12:10:29;;;;;;;2.15;1.92;;;3.90;99.90;;;;;;5073620;28;20170;-78
2021/01/16 12:12:58;;;;;;;0.50;0.50;;;3.70;99.90;;;;;;5073567;28;20228;-77
2021/01/16 12:15:29;;;;;;;4.68;2.75;;;3.50;99.90;;;;;;5073284;28;20186;-81
2021/01/16 12:17:56;;;;;;;1.70;1.65;;;3.50;99.90;;;;;;5073688;28;20624;-77
2021/01/16 12:20:26;;;;;;;1.15;1.15;;;3.30;99.90;;;;;;5073271;28;20158;-77
2021/01/16 12:22:57;;;;;;;2.30;1.95;;;3.50;99.90;;;;;;5072908;28;20214;-78
2021/01/16 12:25:31;;;;;;;0.90;0.90;;;3.50;99.90;;;;;;5073119;28;20187;-78
2021/01/16 12:27:58;;;;;;;0.70;0.70;;;3.50;99.90;;;;;;5073342;28;20150;-76
2021/01/16 12:30:32;;;;;;;2.35;1.60;;;3.50;99.90;;;;;;5071781;28;20163;-77
2021/01/16 12:32:57;;;;;;;1.48;1.10;;;3.50;99.90;;;;;;5073389;28;20531;-79
2021/01/16 12:35:25;;;;;;;3.40;2.80;;;3.70;99.90;;;;;;5073035;28;20196;-78
2021/01/16 12:37:52;;;;;;;8.20;1.60;;;3.40;99.90;;;;;;5073350;28;20202;-77
2021/01/16 12:40:22;;;;;;;5.65;2.22;;;3.60;99.90;;;;;;5073097;28;20175;-77
2021/01/16 12:42:52;;;;;;;1.42;1.40;;;3.50;99.90;;;;;;5073151;28;20167;-78
2021/01/16 12:45:20;;;;;;;5.65;3.80;;;3.70;99.90;;;;;;5072970;28;20197;-78
2021/01/16 12:47:51;;;;;;;6.47;1.23;;;3.70;99.90;;;;;;5073284;28;20167;-77
2021/01/16 12:50:17;;;;;;;0.80;0.80;;;3.50;99.90;;;;;;5073318;28;20177;-78
2021/01/16 12:52:47;;;;;;;1.17;1.17;;;3.40;99.90;;;;;;5072770;28;20167;-77
2021/01/16 12:55:18;;;;;;;12.57;3.50;;;3.40;99.90;;;;;;5070662;28;20736;-78
2021/01/16 12:57:45;;;;;;;0.60;0.60;;;3.50;99.90;;;;;;5073099;28;20198;-77
2021/01/16 13:00:21;;;;;;;0.70;0.70;;;3.50;99.90;;;;;;5073024;28;20223;-78
2021/01/16 13:02:54;;;;;;;0.68;0.68;;;3.60;99.90;;;;;;5073132;28;20569;-78
2021/01/16 13:05:23;;;;;;;1.83;1.63;;;3.40;99.90;;;;;;5072909;28;20228;-76
2021/01/16 13:07:49;;;;;;;2.22;2.05;;;2.80;99.90;;;;;;5073049;28;20606;-73
2021/01/16 13:10:15;;;;;;;1.52;1.45;;;2.70;99.90;;;;;;5072781;28;20181;-73
2021/01/16 13:12:42;;;;;;;0.73;0.73;;;2.80;99.90;;;;;;5072527;28;20174;-74